createdAt,value
2023-10-18T00:00:59.844Z,101227.59
2023-10-18T00:03:30.490Z,101218.75
2023-10-18T00:05:58.803Z,101217.88
2023-10-18T00:08:29.755Z,101210.78
2023-10-18T00:11:01.504Z,101212.03
2023-10-18T00:13:29.720Z,101208.13
2023-10-18T00:16:01.966Z,101209.63
2023-10-18T00:18:30.740Z,101214.69
2023-10-18T00:21:02.232Z,101210.38
2023-10-18T00:23:33.010Z,101207.25
2023-10-18T00:26:01.756Z,101205.13
2023-10-18T00:28:29.441Z,101213.69
2023-10-18T00:30:57.564Z,101220.59
2023-10-18T00:33:25.377Z,101225.84
2023-10-18T00:35:58.806Z,101218.75
2023-10-18T00:38:26.672Z,101223.38
2023-10-18T00:40:58.270Z,101226.06
2023-10-18T00:43:27.912Z,101230.88
2023-10-18T00:45:57.892Z,101227.13
2023-10-18T00:48:29.118Z,101224.81
2023-10-18T00:51:00.205Z,101221.94
2023-10-18T00:53:32.070Z,101220.28
2023-10-18T00:56:02.210Z,101218.25
2023-10-18T00:58:30.930Z,101219.50
2023-10-18T01:00:59.837Z,101210.75
2023-10-18T01:03:34.239Z,101215.31
2023-10-18T01:06:05.367Z,101208.47
2023-10-18T01:08:38.976Z,101217.88
2023-10-18T01:11:11.365Z,101213.28
2023-10-18T01:13:41.834Z,101216.63
2023-10-18T01:16:14.351Z,101211.25
2023-10-18T01:18:44.589Z,101207.06
2023-10-18T01:21:16.065Z,101199.34
2023-10-18T01:23:46.104Z,101206.25
2023-10-18T01:26:15.921Z,101205.63
2023-10-18T01:28:44.312Z,101207.06
2023-10-18T01:31:14.182Z,101202.47
2023-10-18T01:33:44.983Z,101206.63
2023-10-18T01:36:16.397Z,101200.19
2023-10-18T01:38:45.648Z,101208.72
2023-10-18T01:41:18.381Z,101199.16
2023-10-18T01:43:48.736Z,101196.88
2023-10-18T01:46:16.576Z,101197.94
2023-10-18T01:48:51.686Z,101193.31
2023-10-18T01:51:20.832Z,101191.25
2023-10-18T01:53:51.668Z,101188.81
2023-10-18T01:56:23.098Z,101176.75
2023-10-18T01:58:51.150Z,101174.69
2023-10-18T02:01:19.652Z,101166.97
2023-10-18T02:03:51.760Z,101168.84
2023-10-18T02:06:21.547Z,101166.53
2023-10-18T02:08:51.455Z,101167.59
2023-10-18T02:11:20.768Z,101165.50
2023-10-18T02:13:49.043Z,101153.88
2023-10-18T02:16:17.548Z,101153.63
2023-10-18T02:18:47.959Z,101155.09
2023-10-18T02:21:16.686Z,101152.19
2023-10-18T02:23:49.411Z,101151.31
2023-10-18T02:26:32.654Z,101151.50
2023-10-18T02:29:07.021Z,101149.84
2023-10-18T02:31:35.564Z,101148.19
2023-10-18T02:34:18.893Z,101153.63
2023-10-18T02:36:57.250Z,101155.56
2023-10-18T02:39:29.186Z,101149.94
2023-10-18T02:41:58.570Z,101147.22
2023-10-18T02:44:30.351Z,101157.22
2023-10-18T02:47:08.839Z,101149.50
2023-10-18T02:49:36.544Z,101153.06
2023-10-18T02:52:06.249Z,101155.38
2023-10-18T02:54:36.944Z,101155.56
2023-10-18T02:57:06.256Z,101147.84
2023-10-18T02:59:36.938Z,101160.19
2023-10-18T03:02:14.743Z,101158.94
2023-10-18T03:04:44.167Z,101163.34
2023-10-18T03:07:14.524Z,101158.72
2023-10-18T03:09:42.838Z,101159.78
2023-10-18T03:12:16.006Z,101155.03
2023-10-18T03:14:55.995Z,101153.56
2023-10-18T03:17:26.704Z,101145.69
2023-10-18T03:19:57.044Z,101150.44
2023-10-18T03:22:27.866Z,101150.44
2023-10-18T03:24:56.501Z,101145.47
2023-10-18T03:27:26.686Z,101142.72
2023-10-18T03:29:59.736Z,101140.22
2023-10-18T03:32:28.693Z,101138.16
2023-10-18T03:34:57.652Z,101130.84
2023-10-18T03:37:27.266Z,101130.66
2023-10-18T03:39:55.421Z,101122.31
2023-10-18T03:42:33.677Z,101119.41
2023-10-18T03:45:11.933Z,101122.31
2023-10-18T03:47:40.449Z,101121.75
2023-10-18T03:50:14.565Z,101118.19
2023-10-18T03:52:45.114Z,101118.00
2023-10-18T03:55:18.258Z,101120.03
2023-10-18T03:57:47.250Z,101119.44
2023-10-18T04:00:38.880Z,101113.63
2023-10-18T04:03:13.366Z,101110.06
2023-10-18T04:05:44.529Z,101101.16
2023-10-18T04:08:15.782Z,101099.69
2023-10-18T04:10:44.525Z,101103.81
2023-10-18T04:13:15.800Z,101100.50
2023-10-18T04:15:47.853Z,101101.97
2023-10-18T04:18:24.641Z,101108.25
2023-10-18T04:20:53.296Z,101104.31
2023-10-18T04:23:21.635Z,101088.88
2023-10-18T04:25:59.008Z,101089.72
2023-10-18T04:28:27.089Z,101095.34
2023-10-18T04:31:01.355Z,101098.03
2023-10-18T04:33:36.107Z,101089.50
2023-10-18T04:36:12.451Z,101096.59
2023-10-18T04:38:44.211Z,101084.34
2023-10-18T04:41:24.128Z,101080.22
2023-10-18T04:43:52.996Z,101074.38
2023-10-18T04:46:28.430Z,101073.97
2023-10-18T04:49:16.771Z,101076.66
2023-10-18T04:51:46.924Z,101063.75
2023-10-18T04:54:19.469Z,101070.59
2023-10-18T04:56:50.213Z,101074.53
2023-10-18T04:59:30.917Z,101071.41
2023-10-18T05:02:00.806Z,101082.66
2023-10-18T05:04:33.141Z,101089.31
2023-10-18T05:07:03.423Z,101086.44
2023-10-18T05:09:33.075Z,101093.31
2023-10-18T05:12:07.750Z,101084.59
2023-10-18T05:14:52.613Z,101082.50
2023-10-18T05:17:24.555Z,101088.53
2023-10-18T05:19:52.984Z,101074.38
2023-10-18T05:22:25.401Z,101079.38
2023-10-18T05:25:12.821Z,101081.88
2023-10-18T05:27:47.769Z,101070.44
2023-10-18T05:30:17.116Z,101069.78
2023-10-18T05:33:04.411Z,101063.56
2023-10-18T05:35:35.130Z,101066.69
2023-10-18T05:38:20.449Z,101067.50
2023-10-18T05:40:56.647Z,101076.03
2023-10-18T05:43:30.699Z,101089.56
2023-10-18T05:45:59.243Z,101091.03
2023-10-18T05:48:33.171Z,101090.19
2023-10-18T05:51:06.484Z,101095.84
2023-10-18T05:53:34.787Z,101093.34
2023-10-18T05:56:05.675Z,101094.81
2023-10-18T05:58:33.648Z,101092.09
2023-10-18T06:01:04.245Z,101093.75
2023-10-18T06:03:40.911Z,101087.31
2023-10-18T06:06:09.243Z,101089.59
2023-10-18T06:08:38.023Z,101073.34
2023-10-18T06:11:08.132Z,101071.47
2023-10-18T06:13:37.423Z,101075.41
2023-10-18T06:16:19.365Z,101072.47
2023-10-18T06:18:49.832Z,101070.22
2023-10-18T06:21:21.117Z,101064.38
2023-10-18T06:23:56.969Z,101058.75
2023-10-18T06:26:31.475Z,101061.44
2023-10-18T06:29:03.307Z,101061.19
2023-10-18T06:31:31.860Z,101061.38
2023-10-18T06:34:04.016Z,101067.63
2023-10-18T06:36:33.650Z,101068.03
2023-10-18T06:39:01.549Z,101061.97
2023-10-18T06:41:32.461Z,101066.75
2023-10-18T06:44:00.291Z,101060.28
2023-10-18T06:46:30.095Z,101047.56
2023-10-18T06:49:09.941Z,101038.00
2023-10-18T06:51:44.733Z,101026.88
2023-10-18T06:54:15.745Z,101018.06
2023-10-18T06:56:46.999Z,101020.72
2023-10-18T06:59:14.908Z,101024.03
2023-10-18T07:01:54.822Z,101030.91
2023-10-18T07:04:29.007Z,101026.91
2023-10-18T07:06:58.720Z,101036.06
2023-10-18T07:09:32.589Z,101044.34
2023-10-18T07:12:05.134Z,101042.66
2023-10-18T07:14:33.230Z,101046.16
2023-10-18T07:17:05.981Z,101044.22
2023-10-18T07:19:42.740Z,101035.00
2023-10-18T07:22:19.531Z,101019.88
2023-10-18T07:24:54.861Z,101023.97
2023-10-18T07:27:24.814Z,101025.56
2023-10-18T07:29:52.662Z,101015.72
2023-10-18T07:32:25.802Z,101007.72
2023-10-18T07:34:55.317Z,101008.25
2023-10-18T07:37:26.537Z,101009.00
2023-10-18T07:39:58.748Z,101002.06
2023-10-18T07:42:34.711Z,101006.16
2023-10-18T07:45:05.357Z,101000.41
2023-10-18T07:47:34.308Z,100993.25
2023-10-18T07:50:02.244Z,100999.22
2023-10-18T07:52:31.349Z,100993.66
2023-10-18T07:54:59.489Z,100987.69
2023-10-18T07:57:34.780Z,100980.31
2023-10-18T08:02:57.948Z,100977.97
2023-10-18T08:05:32.229Z,100980.38
2023-10-18T08:08:10.387Z,100974.22
2023-10-18T08:10:38.152Z,100965.50
2023-10-18T08:13:09.436Z,100964.34
2023-10-18T08:15:38.256Z,100960.59
2023-10-18T08:18:16.948Z,100958.94
2023-10-18T08:21:04.733Z,100961.94
2023-10-18T08:23:39.750Z,100962.72
2023-10-18T08:26:08.112Z,100957.66
2023-10-18T08:28:47.873Z,100953.97
2023-10-18T08:31:18.517Z,100960.97
2023-10-18T08:33:50.685Z,100958.13
2023-10-18T08:36:19.744Z,100960.94
2023-10-18T08:38:47.950Z,100955.38
2023-10-18T08:41:17.244Z,100958.31
2023-10-18T08:43:59.320Z,100970.00
2023-10-18T08:46:28.717Z,100974.25
2023-10-18T08:48:58.983Z,100979.53
2023-10-18T08:51:29.262Z,100976.78
2023-10-18T08:53:59.879Z,100971.03
2023-10-18T08:56:30.826Z,100971.22
2023-10-18T08:59:00.974Z,100976.91
2023-10-18T09:01:36.205Z,100973.06
2023-10-18T09:04:08.413Z,100980.66
2023-10-18T09:06:36.978Z,100979.84
2023-10-18T09:09:06.874Z,100988.59
2023-10-18T09:11:37.704Z,100991.91
2023-10-18T09:14:08.715Z,100985.34
2023-10-18T09:16:39.372Z,100986.97
2023-10-18T09:19:11.395Z,100990.88
2023-10-18T09:21:45.175Z,100994.94
2023-10-18T09:24:14.810Z,100985.81
2023-10-18T09:26:45.952Z,100994.69
2023-10-18T09:29:13.660Z,100995.88
2023-10-18T09:31:56.469Z,100994.84
2023-10-18T09:34:34.962Z,100980.16
2023-10-18T09:37:05.881Z,100981.00
2023-10-18T09:39:39.670Z,100987.09
2023-10-18T09:42:14.408Z,100988.97
2023-10-18T09:44:42.647Z,100987.09
2023-10-18T09:47:10.944Z,100979.97
2023-10-18T09:49:42.384Z,100971.22
2023-10-18T09:52:13.195Z,100967.03
2023-10-18T09:54:50.755Z,100970.34
2023-10-18T09:57:24.815Z,100979.97
2023-10-18T09:59:55.938Z,100982.44
2023-10-18T10:02:25.495Z,100986.59
2023-10-18T10:04:56.908Z,100969.34
2023-10-18T10:07:38.435Z,100966.91
2023-10-18T10:10:10.769Z,100966.72
2023-10-18T10:12:43.005Z,100966.38
2023-10-18T10:15:15.836Z,100965.13
2023-10-18T10:17:48.642Z,100965.78
2023-10-18T10:20:23.255Z,100965.72
2023-10-18T10:22:51.798Z,100964.13
2023-10-18T10:25:39.162Z,100952.59
2023-10-18T10:28:16.629Z,100946.28
2023-10-18T10:30:45.016Z,100954.00
2023-10-18T10:33:14.335Z,100952.94
2023-10-18T10:35:48.953Z,100960.03
2023-10-18T10:38:20.035Z,100963.28
2023-10-18T10:40:51.030Z,100962.22
2023-10-18T10:43:20.702Z,100960.88
2023-10-18T10:45:59.154Z,100956.50
2023-10-18T10:48:38.296Z,100956.81
2023-10-18T10:51:13.507Z,100946.13
2023-10-18T10:53:49.254Z,100942.53
2023-10-18T10:56:22.174Z,100940.69
2023-10-18T10:58:56.578Z,100936.28
2023-10-18T11:01:42.203Z,100933.88
2023-10-18T11:04:16.238Z,100932.03
2023-10-18T11:06:45.899Z,100942.75
2023-10-18T11:09:17.948Z,100930.72
2023-10-18T11:11:47.179Z,100930.16
2023-10-18T11:14:19.823Z,100922.75
2023-10-18T11:16:52.419Z,100911.81
2023-10-18T11:19:25.642Z,100923.13
2023-10-18T11:21:56.256Z,100922.31
2023-10-18T11:24:23.898Z,100912.13
2023-10-18T11:26:52.678Z,100897.66
2023-10-18T11:29:25.658Z,100894.63
2023-10-18T11:31:56.589Z,100891.09
2023-10-18T11:34:25.212Z,100895.16
2023-10-18T11:36:56.229Z,100887.78
2023-10-18T11:39:29.716Z,100896.34
2023-10-18T11:41:59.076Z,100893.84
2023-10-18T11:44:28.048Z,100883.72
2023-10-18T11:47:03.104Z,100885.06
2023-10-18T11:49:38.527Z,100888.41
2023-10-18T11:52:14.481Z,100881.84
2023-10-18T11:54:42.266Z,100880.75
2023-10-18T11:57:26.353Z,100885.94
2023-10-18T11:59:56.126Z,100871.44
2023-10-18T12:02:27.546Z,100867.84
2023-10-18T12:04:55.581Z,100867.84
2023-10-18T12:07:25.278Z,100868.94
2023-10-18T12:09:53.766Z,100853.59
2023-10-18T12:12:21.680Z,100850.31
2023-10-18T12:14:50.963Z,100837.72
2023-10-18T12:17:18.931Z,100844.03
2023-10-18T12:19:46.707Z,100842.94
2023-10-18T12:22:16.973Z,100834.72
2023-10-18T12:24:46.021Z,100832.00
2023-10-18T12:27:35.545Z,100825.72
2023-10-18T12:30:31.588Z,100831.19
2023-10-18T12:33:06.306Z,100830.09
2023-10-18T12:35:34.895Z,100821.06
2023-10-18T12:38:14.348Z,100812.56
2023-10-18T12:40:53.105Z,100809.81
2023-10-18T12:43:22.703Z,100809.28
2023-10-18T12:45:52.398Z,100804.91
2023-10-18T12:48:24.758Z,100788.72
2023-10-18T12:50:52.876Z,100794.47
2023-10-18T12:56:32.496Z,100781.31
2023-10-18T12:59:13.456Z,100776.97
2023-10-18T13:01:45.331Z,100779.41
2023-10-18T13:04:18.747Z,100778.03
2023-10-18T13:06:47.154Z,100769.81
2023-10-18T13:09:20.837Z,100758.06
2023-10-18T13:12:02.617Z,100742.13
2023-10-18T13:14:33.545Z,100733.63
2023-10-18T13:17:04.993Z,100743.78
2023-10-18T13:19:34.025Z,100745.69
2023-10-18T13:22:05.517Z,100737.75
2023-10-18T13:24:34.168Z,100737.75
2023-10-18T13:27:04.418Z,100731.44
2023-10-18T13:29:32.932Z,100734.72
2023-10-18T13:32:08.300Z,100729.50
2023-10-18T13:34:40.589Z,100725.66
2023-10-18T13:37:14.357Z,100727.31
2023-10-18T13:39:44.029Z,100728.69
2023-10-18T13:42:14.060Z,100721.84
2023-10-18T13:44:42.727Z,100719.66
2023-10-18T13:47:13.959Z,100716.09
2023-10-18T13:49:43.282Z,100708.41
2023-10-18T13:52:12.608Z,100710.06
2023-10-18T13:54:41.996Z,100707.31
2023-10-18T13:57:09.990Z,100711.69
2023-10-18T13:59:40.379Z,100703.19
2023-10-18T14:02:08.556Z,100705.38
2023-10-18T14:04:37.096Z,100694.97
2023-10-18T14:07:06.448Z,100689.78
2023-10-18T14:09:36.394Z,100692.78
2023-10-18T14:12:05.972Z,100692.19
2023-10-18T14:14:34.684Z,100679.31
2023-10-18T14:17:05.707Z,100689.19
2023-10-18T14:19:34.163Z,100677.13
2023-10-18T14:22:02.607Z,100675.22
2023-10-18T14:24:31.128Z,100668.06
2023-10-18T14:27:01.078Z,100659.84
2023-10-18T14:29:29.471Z,100653.00
2023-10-18T14:31:57.850Z,100657.34
2023-10-18T14:34:27.003Z,100645.03
2023-10-18T14:36:54.763Z,100648.88
2023-10-18T14:39:38.234Z,100654.59
2023-10-18T14:42:08.290Z,100655.13
2023-10-18T14:44:36.752Z,100652.09
2023-10-18T14:47:07.255Z,100647.75
2023-10-18T14:49:40.286Z,100637.91
2023-10-18T14:52:12.526Z,100632.72
2023-10-18T14:54:42.403Z,100639.03
2023-10-18T14:57:10.085Z,100629.69
2023-10-18T14:59:39.271Z,100630.56
2023-10-18T15:02:07.046Z,100624.25
2023-10-18T15:04:36.159Z,100625.94
2023-10-18T15:07:04.327Z,100625.69
2023-10-18T15:09:32.262Z,100616.34
2023-10-18T15:12:00.566Z,100618.84
2023-10-18T15:14:28.451Z,100609.53
2023-10-18T15:16:56.757Z,100605.97
2023-10-18T15:19:24.546Z,100606.53
2023-10-18T15:21:53.522Z,100607.09
2023-10-18T15:24:21.788Z,100601.63
2023-10-18T15:26:49.500Z,100598.31
2023-10-18T15:29:19.507Z,100592.88
2023-10-18T15:31:47.723Z,100578.09
2023-10-18T15:34:15.729Z,100584.69
2023-10-18T15:36:43.450Z,100583.56
2023-10-18T15:39:15.433Z,100576.75
2023-10-18T15:41:43.135Z,100568.81
2023-10-18T15:44:11.581Z,100574.81
2023-10-18T15:46:39.396Z,100568.25
2023-10-18T15:49:07.965Z,100560.06
2023-10-18T15:51:38.120Z,100552.38
2023-10-18T15:54:07.545Z,100552.91
2023-10-18T15:56:37.296Z,100546.56
2023-10-18T15:59:06.402Z,100555.88
2023-10-18T16:04:05.655Z,100533.13
2023-10-18T16:06:33.395Z,100526.56
2023-10-18T16:09:01.464Z,100521.63
2023-10-18T16:11:29.208Z,100526.53
2023-10-18T16:13:58.619Z,100523.78
2023-10-18T16:16:27.045Z,100521.88
2023-10-18T16:18:57.309Z,100518.28
2023-10-18T16:21:25.859Z,100523.47
2023-10-18T16:23:54.171Z,100523.75
2023-10-18T16:26:24.596Z,100521.56
2023-10-18T16:28:53.102Z,100512.50
2023-10-18T16:31:24.865Z,100505.66
2023-10-18T16:33:54.915Z,100508.94
2023-10-18T16:36:23.142Z,100508.91
2023-10-18T16:38:52.205Z,100508.91
2023-10-18T16:41:20.727Z,100497.38
2023-10-18T16:43:50.342Z,100504.47
2023-10-18T16:46:21.494Z,100503.63
2023-10-18T16:48:51.628Z,100497.03
2023-10-18T16:51:19.772Z,100489.38
2023-10-18T16:53:48.930Z,100497.03
2023-10-18T16:56:17.261Z,100481.97
2023-10-18T16:58:47.510Z,100487.97
2023-10-18T17:01:18.634Z,100481.69
2023-10-18T17:03:49.702Z,100486.28
2023-10-18T17:06:19.481Z,100489.56
2023-10-18T17:08:48.324Z,100484.03
2023-10-18T17:11:19.125Z,100484.31
2023-10-18T17:13:48.801Z,100479.41
2023-10-18T17:16:19.230Z,100473.63
2023-10-18T17:18:46.979Z,100475.25
2023-10-18T17:21:20.326Z,100466.75
2023-10-18T17:23:52.306Z,100468.13
2023-10-18T17:26:20.653Z,100463.19
2023-10-18T17:28:48.545Z,100458.25
2023-10-18T17:31:21.593Z,100453.03
2023-10-18T17:33:50.644Z,100450.56
2023-10-18T17:36:19.671Z,100441.56
2023-10-18T17:38:49.036Z,100439.91
2023-10-18T17:41:18.342Z,100434.16
2023-10-18T17:43:48.312Z,100437.16
2023-10-18T17:46:16.981Z,100428.69
2023-10-18T17:48:44.919Z,100433.59
2023-10-18T17:51:13.182Z,100432.44
2023-10-18T17:53:41.265Z,100422.91
2023-10-18T17:56:11.971Z,100429.72
2023-10-18T17:58:42.664Z,100423.97
2023-10-18T18:01:22.431Z,100419.06
2023-10-18T18:03:53.265Z,100419.00
2023-10-18T18:06:21.927Z,100419.78
2023-10-18T18:08:49.924Z,100420.28
2023-10-18T18:11:26.148Z,100415.66
2023-10-18T18:13:55.259Z,100416.16
2023-10-18T18:16:23.777Z,100415.88
2023-10-18T18:18:52.858Z,100412.59
2023-10-18T18:21:22.559Z,100410.16
2023-10-18T18:23:51.218Z,100410.94
2023-10-18T18:26:21.038Z,100402.44
2023-10-18T18:28:51.258Z,100392.63
2023-10-18T18:31:20.440Z,100396.19
2023-10-18T18:33:50.952Z,100393.47
2023-10-18T18:36:18.979Z,100388.25
2023-10-18T18:38:46.724Z,100392.59
2023-10-18T18:41:15.973Z,100381.38
2023-10-18T18:43:43.667Z,100387.69
2023-10-18T18:46:20.972Z,100384.41
2023-10-18T18:48:56.933Z,100384.41
2023-10-18T18:51:25.016Z,100386.88
2023-10-18T18:53:52.695Z,100381.69
2023-10-18T18:56:22.038Z,100383.09
2023-10-18T18:58:50.451Z,100371.59
2023-10-18T19:01:19.220Z,100377.88
2023-10-18T19:03:49.632Z,100368.06
2023-10-18T19:06:18.805Z,100365.88
2023-10-18T19:08:46.996Z,100359.34
2023-10-18T19:11:24.368Z,100364.78
2023-10-18T19:13:53.005Z,100360.41
2023-10-18T19:16:21.185Z,100350.88
2023-10-18T19:18:49.223Z,100351.72
2023-10-18T19:21:19.156Z,100345.44
2023-10-18T19:23:48.976Z,100349.22
2023-10-18T19:26:18.464Z,100345.94
2023-10-18T19:28:46.715Z,100349.22
2023-10-18T19:31:18.080Z,100345.69
2023-10-18T19:33:46.887Z,100339.16
2023-10-18T19:36:16.546Z,100336.44
2023-10-18T19:38:46.399Z,100325.25
2023-10-18T19:41:18.133Z,100335.34
2023-10-18T19:43:46.922Z,100333.69
2023-10-18T19:46:14.699Z,100335.59
2023-10-18T19:48:43.076Z,100332.53
2023-10-18T19:51:14.348Z,100331.75
2023-10-18T19:53:42.262Z,100326.53
2023-10-18T19:56:15.303Z,100322.16
2023-10-18T19:58:43.377Z,100324.34
2023-10-18T20:01:11.128Z,100316.72
2023-10-18T20:03:39.817Z,100309.91
2023-10-18T20:06:08.489Z,100311.28
2023-10-18T20:08:36.920Z,100306.38
2023-10-18T20:11:06.566Z,100312.66
2023-10-18T20:13:35.691Z,100311.84
2023-10-18T20:16:03.738Z,100308.03
2023-10-18T20:18:32.104Z,100313.47
2023-10-18T20:21:01.044Z,100314.56
2023-10-18T20:23:29.401Z,100300.13
2023-10-18T20:26:01.351Z,100302.03
2023-10-18T20:28:30.704Z,100301.22
2023-10-18T20:31:00.474Z,100295.25
2023-10-18T20:33:28.636Z,100291.69
2023-10-18T20:35:56.896Z,100291.19
2023-10-18T20:38:25.416Z,100284.66
2023-10-18T20:40:55.060Z,100281.66
2023-10-18T20:43:26.647Z,100275.66
2023-10-18T20:46:05.963Z,100280.03
2023-10-18T20:48:36.331Z,100262.59
2023-10-18T20:51:07.496Z,100270.22
2023-10-18T20:53:35.293Z,100260.16
2023-10-18T20:56:03.392Z,100254.41
2023-10-18T20:58:31.946Z,100251.69
2023-10-18T21:01:02.115Z,100256.66
2023-10-18T21:03:33.650Z,100252.56
2023-10-18T21:06:02.043Z,100253.38
2023-10-18T21:08:31.522Z,100250.94
2023-10-18T21:10:59.234Z,100248.75
2023-10-18T21:13:27.756Z,100237.34
2023-10-18T21:15:55.882Z,100231.91
2023-10-18T21:18:23.628Z,100228.38
2023-10-18T21:21:00.234Z,100232.78
2023-10-18T21:23:27.932Z,100235.22
2023-10-18T21:25:56.108Z,100234.44
2023-10-18T21:28:23.849Z,100234.44
2023-10-18T21:30:52.796Z,100229.00
2023-10-18T21:33:20.558Z,100221.91
2023-10-18T21:35:48.315Z,100225.47
2023-10-18T21:38:17.917Z,100214.56
2023-10-18T21:40:46.619Z,100217.03
2023-10-18T21:43:15.519Z,100201.75
2023-10-18T21:45:43.915Z,100184.84
2023-10-18T21:48:11.700Z,100187.31
2023-10-18T21:50:40.454Z,100190.56
2023-10-18T21:53:08.195Z,100189.19
2023-10-18T21:55:37.919Z,100181.31
2023-10-18T21:58:06.238Z,100171.19
2023-10-18T22:00:42.071Z,100171.75
2023-10-18T22:03:12.145Z,100168.78
2023-10-18T22:05:43.458Z,100157.84
2023-10-18T22:08:16.867Z,100145.84
2023-10-18T22:10:46.949Z,100152.13
2023-10-18T22:13:15.376Z,100149.38
2023-10-18T22:15:49.629Z,100148.31
2023-10-18T22:18:21.091Z,100142.84
2023-10-18T22:20:48.856Z,100143.94
2023-10-18T22:23:17.324Z,100146.13
2023-10-18T22:26:02.057Z,100130.03
2023-10-18T22:28:36.032Z,100116.13
2023-10-18T22:31:04.518Z,100120.50
2023-10-18T22:33:33.533Z,100116.97
2023-10-18T22:36:01.788Z,100117.22
2023-10-18T22:38:29.540Z,100110.41
2023-10-18T22:41:12.300Z,100115.88
2023-10-18T22:43:40.682Z,100121.88
2023-10-18T22:46:17.054Z,100109.31
2023-10-18T22:48:45.580Z,100105.50
2023-10-18T22:51:32.999Z,100098.13
2023-10-18T22:54:04.847Z,100089.69
2023-10-18T22:56:53.207Z,100085.59
2023-10-18T22:59:23.497Z,100073.59
2023-10-18T23:01:51.665Z,100066.50
2023-10-18T23:04:20.125Z,100070.06
2023-10-18T23:06:49.503Z,100070.88
2023-10-18T23:09:25.317Z,100073.63
2023-10-18T23:11:58.723Z,100065.16
2023-10-18T23:14:29.269Z,100075.50
2023-10-18T23:17:10.995Z,100068.69
2023-10-18T23:19:44.783Z,100055.03
2023-10-18T23:22:20.935Z,100039.78
2023-10-18T23:24:50.127Z,100041.41
2023-10-18T23:27:37.717Z,100024.25
2023-10-18T23:30:17.110Z,100027.78
2023-10-18T23:32:56.425Z,100017.72
2023-10-18T23:35:27.961Z,100014.16
2023-10-18T23:38:10.095Z,100002.16
2023-10-18T23:40:51.355Z,99993.97
2023-10-18T23:43:47.636Z,100001.34
2023-10-18T23:46:58.784Z,99997.81
2023-10-18T23:49:29.937Z,99986.91
2023-10-18T23:52:31.840Z,99983.63
2023-10-18T23:54:58.831Z,99968.91
2023-10-18T23:57:33.794Z,99956.09
